Time;durP1;ratioP1;P1;durP2;ratioP2;P2;SDS_P1;SDS_P2;PMS_P1;PMS_P2;Temp;Humidity;BMP_temperature;BMP_pressure;BME280_temperature;BME280_humidity;BME280_pressure;Samples;Min_cycle;Max_cycle;Signal;HPM_P1;HPM_P2
2023/04/15 00:00:34;;;;;;;7.90;5.40;;;;;;;11.51;78.68;98027.30;108006;1306;23172;-40
2023/04/15 00:03:01;;;;;;;10.40;5.90;;;;;;;11.45;79.15;98028.89;108047;1306;22408;-40
2023/04/15 00:05:28;;;;;;;8.60;5.90;;;;;;;11.41;79.06;98030.77;108040;1306;22241;-40
2023/04/15 00:07:54;;;;;;;8.20;5.70;;;;;;;11.38;81.04;98030.34;108049;1306;22307;-42
2023/04/15 00:10:19;;;;;;;7.60;5.60;;;;;;;11.39;80.82;98028.85;108020;1306;22274;-41
2023/04/15 00:12:44;;;;;;;9.30;5.50;;;;;;;11.42;79.45;98027.95;108037;1306;22373;-40
2023/04/15 00:15:11;;;;;;;7.70;5.70;;;;;;;11.38;81.26;98029.63;108039;1306;22391;-43
2023/04/15 00:17:38;;;;;;;14.00;5.60;;;;;;;11.40;80.94;98033.36;108036;1306;22399;-40
2023/04/15 00:20:05;;;;;;;8.00;4.90;;;;;;;11.42;79.97;98036.48;108033;1306;22361;-42
2023/04/15 00:22:31;;;;;;;7.20;5.00;;;;;;;11.40;80.35;98039.45;108032;1306;22422;-40
2023/04/15 00:24:56;;;;;;;6.00;4.80;;;;;;;11.39;79.96;98039.00;108051;1306;22253;-42
2023/04/15 00:27:22;;;;;;;8.70;4.90;;;;;;;11.39;79.81;98038.52;108042;1306;23110;-40
2023/04/15 00:29:47;;;;;;;9.80;5.60;;;;;;;11.34;80.54;98040.09;108029;1306;22267;-42
2023/04/15 00:32:12;;;;;;;6.90;5.10;;;;;;;11.36;80.30;98038.73;108024;1306;22487;-42
2023/04/15 00:34:37;;;;;;;7.20;5.10;;;;;;;11.35;81.24;98039.53;108024;1306;22437;-41
2023/04/15 00:37:03;;;;;;;6.50;5.20;;;;;;;11.37;80.38;98032.13;108044;1306;22313;-41
2023/04/15 00:39:28;;;;;;;6.80;5.20;;;;;;;11.36;80.80;98032.02;108034;1306;22862;-41
2023/04/15 00:41:54;;;;;;;11.40;5.60;;;;;;;11.38;80.27;98032.26;108015;1306;22223;-41
2023/04/15 00:44:19;;;;;;;6.50;4.40;;;;;;;11.34;80.97;98030.48;107995;1306;22209;-41
2023/04/15 00:46:46;;;;;;;7.30;5.30;;;;;;;11.37;80.91;98030.02;108039;1306;22217;-40
2023/04/15 00:49:12;;;;;;;10.60;5.70;;;;;;;11.42;80.29;98023.83;108002;1306;22305;-41
2023/04/15 00:51:37;;;;;;;9.60;5.10;;;;;;;11.39;80.82;98025.33;107783;1306;22418;-41
2023/04/15 00:54:03;;;;;;;6.70;5.10;;;;;;;11.39;80.06;98024.79;108022;1306;22212;-42
2023/04/15 00:56:30;;;;;;;9.10;4.80;;;;;;;11.36;80.30;98024.84;107996;1306;22305;-41
2023/04/15 00:58:57;;;;;;;10.50;5.20;;;;;;;11.38;80.43;98026.08;108009;1306;23164;-40
2023/04/15 01:01:24;;;;;;;8.30;5.30;;;;;;;11.41;80.05;98031.52;108019;1306;22938;-42
2023/04/15 01:03:50;;;;;;;10.10;5.70;;;;;;;11.40;80.45;98030.51;108023;1306;22601;-42
2023/04/15 01:06:17;;;;;;;8.60;5.70;;;;;;;11.39;80.71;98027.92;107997;1306;22245;-42
2023/04/15 01:08:42;;;;;;;10.60;5.30;;;;;;;11.40;80.83;98025.58;108005;1306;22237;-42
2023/04/15 01:11:09;;;;;;;6.50;4.90;;;;;;;11.40;80.86;98026.98;108022;1306;23074;-41
2023/04/15 01:13:35;;;;;;;8.10;4.90;;;;;;;11.44;80.52;98028.48;108010;1306;22278;-42
2023/04/15 01:16:01;;;;;;;7.80;5.60;;;;;;;11.43;80.53;98027.88;108029;1306;22221;-41
2023/04/15 01:18:28;;;;;;;6.60;5.30;;;;;;;11.37;80.65;98029.00;108023;1306;23171;-42
2023/04/15 01:20:53;;;;;;;17.20;6.00;;;;;;;11.32;80.73;98029.38;108014;1306;23068;-39
2023/04/15 01:23:20;;;;;;;6.70;4.90;;;;;;;11.28;80.94;98028.81;107987;1306;23072;-41
2023/04/15 01:25:46;;;;;;;6.50;5.40;;;;;;;11.24;81.75;98024.22;108002;1306;22389;-40
2023/04/15 01:28:12;;;;;;;7.30;5.50;;;;;;;11.27;81.18;98024.89;108005;1306;22989;-41
2023/04/15 01:30:37;;;;;;;10.40;5.50;;;;;;;11.26;81.19;98025.63;107998;1306;23127;-41
2023/04/15 01:33:02;;;;;;;8.40;5.90;;;;;;;11.22;81.77;98027.02;107993;1306;22924;-42
2023/04/15 01:35:28;;;;;;;10.30;5.90;;;;;;;11.22;81.03;98028.41;107989;1306;22218;-42
2023/04/15 01:37:53;;;;;;;7.80;5.60;;;;;;;11.16;82.34;98025.87;107984;1306;22236;-42
2023/04/15 01:40:19;;;;;;;6.70;5.30;;;;;;;11.14;83.12;98030.09;108019;1306;22247;-40
2023/04/15 01:42:45;;;;;;;9.20;5.80;;;;;;;11.13;83.17;98030.83;108017;1306;22238;-41
2023/04/15 01:45:11;;;;;;;6.40;5.40;;;;;;;11.17;82.75;98028.13;108036;1306;23005;-40
2023/04/15 01:47:36;;;;;;;8.70;5.80;;;;;;;11.17;82.12;98027.06;108020;1306;22952;-41
2023/04/15 01:50:01;;;;;;;10.30;5.20;;;;;;;11.14;83.08;98026.59;107992;1306;22233;-41
2023/04/15 01:52:27;;;;;;;6.50;5.40;;;;;;;11.11;82.89;98029.58;108017;1306;22366;-42
2023/04/15 01:54:52;;;;;;;7.30;5.60;;;;;;;11.05;84.35;98031.80;107994;1305;23034;-41
2023/04/15 01:57:17;;;;;;;6.40;4.80;;;;;;;11.05;84.00;98037.30;108019;1306;22234;-41
2023/04/15 01:59:43;;;;;;;7.70;5.00;;;;;;;11.07;83.94;98039.77;107988;1306;22867;-41
2023/04/15 02:02:08;;;;;;;6.50;5.60;;;;;;;11.09;83.64;98042.02;108008;1306;22395;-41
2023/04/15 02:04:33;;;;;;;8.30;5.50;;;;;;;11.07;83.73;98044.62;107996;1306;22772;-42
2023/04/15 02:06:59;;;;;;;7.90;5.80;;;;;;;11.09;83.21;98046.41;107991;1306;24277;-40
2023/04/15 02:09:24;;;;;;;7.80;5.80;;;;;;;11.09;83.98;98046.10;107996;1306;22956;-40
2023/04/15 02:11:52;;;;;;;7.70;5.70;;;;;;;11.08;85.00;98046.87;107995;1306;23594;-42
2023/04/15 02:14:17;;;;;;;7.40;5.70;;;;;;;11.09;85.03;98047.83;107986;1307;22233;-40
2023/04/15 02:16:43;;;;;;;7.90;6.10;;;;;;;11.11;84.72;98048.21;107994;1306;22311;-42
2023/04/15 02:19:08;;;;;;;10.50;6.00;;;;;;;11.13;85.13;98046.63;108018;1306;22236;-39
2023/04/15 02:21:34;;;;;;;8.80;5.70;;;;;;;11.12;85.14;98046.48;108020;1306;22233;-40
2023/04/15 02:24:01;;;;;;;8.10;5.90;;;;;;;11.15;85.75;98046.67;107990;1306;22218;-42
2023/04/15 02:26:26;;;;;;;8.10;6.40;;;;;;;11.16;85.61;98051.18;108007;1306;22204;-41
2023/04/15 02:28:51;;;;;;;10.90;6.60;;;;;;;11.13;86.29;98046.98;108008;1306;23173;-41
2023/04/15 02:31:17;;;;;;;8.50;5.80;;;;;;;11.12;86.48;98049.20;107998;1306;22265;-41
2023/04/15 02:33:42;;;;;;;14.00;6.20;;;;;;;11.10;86.82;98050.38;108010;1307;23078;-40
2023/04/15 02:36:09;;;;;;;8.90;5.80;;;;;;;11.07;88.09;98048.16;108021;1306;22972;-42
2023/04/15 02:38:34;;;;;;;8.50;5.70;;;;;;;11.05;88.68;98053.18;108014;1306;23433;-42
2023/04/15 02:43:38;;;;;;;7.40;6.20;;;;;;;11.06;88.07;98053.86;106804;1303;545270;-39
2023/04/15 02:46:04;;;;;;;14.00;5.90;;;;;;;11.02;89.53;98056.09;107240;1313;23151;-42
2023/04/15 02:48:30;;;;;;;7.40;6.00;;;;;;;11.04;88.20;98059.81;107250;1313;22420;-40
2023/04/15 02:51:18;;;;;;;6.80;5.80;;;;;;;11.05;88.09;98058.36;107238;1313;22272;-40
2023/04/15 02:53:44;;;;;;;6.90;5.90;;;;;;;11.01;88.84;98058.80;107247;1313;22333;-40
2023/04/15 02:56:10;;;;;;;7.10;6.10;;;;;;;10.97;89.32;98056.49;107119;1311;178902;-40
2023/04/15 02:58:36;;;;;;;9.00;6.00;;;;;;;10.90;91.32;98055.23;107391;1311;22402;-41
2023/04/15 03:01:01;;;;;;;7.50;6.00;;;;;;;10.93;90.25;98057.48;107419;1311;22234;-40
2023/04/15 03:03:27;;;;;;;8.60;6.20;;;;;;;10.90;90.41;98056.10;107410;1311;23322;-40
2023/04/15 03:05:53;;;;;;;7.30;5.90;;;;;;;10.88;90.94;98056.98;107377;1311;22268;-40
2023/04/15 03:08:19;;;;;;;7.40;5.90;;;;;;;10.89;90.06;98056.02;107396;1311;22402;-39
2023/04/15 03:10:44;;;;;;;8.00;5.80;;;;;;;10.87;90.66;98053.69;107380;1311;22977;-40
2023/04/15 03:13:10;;;;;;;7.00;6.10;;;;;;;10.84;90.02;98058.14;107388;1311;22182;-40
2023/04/15 03:15:35;;;;;;;7.50;6.20;;;;;;;10.82;90.52;98055.55;107387;1311;23017;-40
2023/04/15 03:18:01;;;;;;;10.40;5.70;;;;;;;10.81;91.37;98056.69;107408;1311;22407;-42
2023/04/15 03:20:26;;;;;;;6.80;5.90;;;;;;;10.80;92.08;98060.20;107414;1311;22421;-41
2023/04/15 03:22:52;;;;;;;8.10;6.10;;;;;;;10.80;91.39;98061.08;107395;1311;22254;-40
2023/04/15 03:25:17;;;;;;;10.20;5.90;;;;;;;10.76;91.99;98060.48;107386;1311;22975;-41
2023/04/15 03:27:42;;;;;;;7.40;5.60;;;;;;;10.72;92.60;98069.55;107412;1311;22250;-41
2023/04/15 03:30:08;;;;;;;6.90;5.60;;;;;;;10.72;91.74;98069.55;107417;1311;22410;-40
2023/04/15 03:32:33;;;;;;;6.10;5.40;;;;;;;10.72;92.26;98068.19;107391;1311;22938;-41
2023/04/15 03:34:59;;;;;;;5.80;5.20;;;;;;;10.67;93.09;98071.14;107399;1311;22247;-40
2023/04/15 03:37:24;;;;;;;7.20;5.60;;;;;;;10.68;92.74;98071.77;107422;1311;22365;-41
2023/04/15 03:39:49;;;;;;;7.60;5.30;;;;;;;10.69;92.53;98073.46;107395;1300;23068;-40
2023/04/15 03:42:15;;;;;;;7.40;5.50;;;;;;;10.70;92.92;98074.34;107407;1311;22349;-40
2023/04/15 03:44:41;;;;;;;8.30;5.70;;;;;;;10.69;93.05;98073.63;107410;1311;22287;-40
2023/04/15 03:47:06;;;;;;;6.40;5.20;;;;;;;10.70;92.98;98073.23;107421;1311;22200;-41
2023/04/15 03:49:31;;;;;;;7.60;5.40;;;;;;;10.71;92.70;98071.02;107408;1311;22284;-40
2023/04/15 03:51:57;;;;;;;6.20;5.60;;;;;;;10.70;93.71;98075.50;107410;1311;22951;-42
2023/04/15 03:54:22;;;;;;;6.10;5.00;;;;;;;10.71;93.23;98077.34;107373;1311;22260;-43
2023/04/15 03:56:47;;;;;;;6.90;5.20;;;;;;;10.71;92.52;98076.83;107387;1312;22249;-40
2023/04/15 03:59:13;;;;;;;5.50;4.90;;;;;;;10.69;92.90;98081.73;107384;1312;23260;-43
2023/04/15 04:01:38;;;;;;;5.30;4.80;;;;;;;10.68;93.46;98084.27;107388;1310;22311;-40
2023/04/15 04:04:03;;;;;;;5.80;4.80;;;;;;;10.68;93.30;98083.71;107400;1312;22239;-40
2023/04/15 04:06:28;;;;;;;6.50;5.10;;;;;;;10.69;93.74;98083.79;107400;1312;22283;-39
2023/04/15 04:08:54;;;;;;;9.70;5.20;;;;;;;10.70;93.78;98081.61;107389;1311;24243;-39
2023/04/15 04:11:20;;;;;;;8.20;5.10;;;;;;;10.71;93.97;98084.23;107380;1312;22225;-42
2023/04/15 04:13:45;;;;;;;7.10;5.40;;;;;;;10.72;93.01;98084.09;107391;1312;22369;-42
2023/04/15 04:16:11;;;;;;;8.10;5.60;;;;;;;10.70;94.29;98085.83;107395;1312;22509;-40
2023/04/15 04:18:36;;;;;;;6.20;5.60;;;;;;;10.68;94.18;98088.25;107402;1312;22408;-40
2023/04/15 04:21:01;;;;;;;8.70;5.80;;;;;;;10.69;93.81;98085.05;107378;1312;22231;-39
2023/04/15 04:23:27;;;;;;;9.90;6.60;;;;;;;10.63;94.98;98088.63;107388;1312;22245;-40
2023/04/15 04:25:52;;;;;;;7.00;6.00;;;;;;;10.67;94.67;98084.28;107396;1312;22319;-39
2023/04/15 04:28:17;;;;;;;7.40;5.90;;;;;;;10.69;94.44;98088.90;107403;1312;22579;-39
2023/04/15 04:30:43;;;;;;;9.20;5.90;;;;;;;10.68;94.28;98091.39;107436;1312;22647;-39
2023/04/15 04:33:08;;;;;;;12.80;7.60;;;;;;;10.68;94.26;98088.77;107423;1312;22428;-39
2023/04/15 04:35:36;;;;;;;9.30;6.60;;;;;;;10.64;94.85;98092.77;107403;1312;23167;-40
2023/04/15 04:38:02;;;;;;;9.70;6.80;;;;;;;10.64;95.60;98093.34;107428;1312;22213;-40
2023/04/15 04:40:28;;;;;;;12.70;8.50;;;;;;;10.65;94.53;98094.98;107395;1312;23236;-41
2023/04/15 04:42:53;;;;;;;7.90;7.00;;;;;;;10.65;94.97;98095.52;107413;1311;22408;-42
2023/04/15 04:45:19;;;;;;;9.90;6.60;;;;;;;10.67;95.79;98094.52;107403;1312;23005;-40
2023/04/15 04:47:45;;;;;;;6.30;5.60;;;;;;;10.68;96.11;98095.31;107413;1312;23007;-42
2023/04/15 04:50:11;;;;;;;7.20;5.90;;;;;;;10.70;95.49;98092.16;107420;1312;22245;-42
2023/04/15 04:52:36;;;;;;;8.30;5.60;;;;;;;10.73;95.19;98092.80;107416;1312;22128;-41
2023/04/15 04:55:02;;;;;;;7.10;5.50;;;;;;;10.73;96.49;98094.23;107410;1312;22255;-41
2023/04/15 04:57:27;;;;;;;8.20;5.20;;;;;;;10.73;96.21;98095.09;107419;1312;22911;-42
2023/04/15 04:59:53;;;;;;;8.90;5.40;;;;;;;10.69;96.46;98102.41;107419;1312;22416;-42
2023/04/15 05:02:18;;;;;;;7.90;5.00;;;;;;;10.70;95.78;98099.71;107413;1312;22249;-41
2023/04/15 05:04:43;;;;;;;5.50;5.00;;;;;;;10.69;96.27;98097.71;107399;1311;24325;-42
2023/04/15 05:07:08;;;;;;;6.30;4.90;;;;;;;10.70;97.64;98095.13;107422;1312;23198;-40
2023/04/15 05:09:35;;;;;;;5.50;4.40;;;;;;;10.71;97.95;98098.74;107411;1311;22227;-40
2023/04/15 05:12:01;;;;;;;5.00;4.50;;;;;;;10.74;98.08;98096.78;107429;1312;22390;-42
2023/04/15 05:14:26;;;;;;;10.60;5.00;;;;;;;10.78;96.54;98098.96;107403;1312;22248;-40
2023/04/15 05:16:51;;;;;;;4.80;4.40;;;;;;;10.79;96.94;98104.10;107420;1312;22265;-39
2023/04/15 05:19:17;;;;;;;5.70;4.30;;;;;;;10.82;96.57;98104.42;107411;1312;23139;-41
2023/04/15 05:21:42;;;;;;;7.20;4.10;;;;;;;10.84;95.92;98105.87;107411;1311;24227;-41
2023/04/15 05:24:07;;;;;;;5.10;4.60;;;;;;;10.83;96.88;98102.78;107420;1312;22246;-41
2023/04/15 05:26:32;;;;;;;5.30;4.40;;;;;;;10.82;97.56;98100.94;107417;1312;22872;-40
2023/04/15 05:28:58;;;;;;;7.10;4.40;;;;;;;10.83;96.29;98103.27;107396;1312;23276;-40
2023/04/15 05:31:23;;;;;;;5.60;4.60;;;;;;;10.85;96.03;98102.30;107406;1312;22329;-41
2023/04/15 05:33:49;;;;;;;7.20;6.50;;;;;;;10.83;96.61;98098.20;107411;1305;22267;-40
2023/04/15 05:36:14;;;;;;;7.90;7.00;;;;;;;10.85;97.25;98102.45;107409;1311;22252;-40
2023/04/15 05:38:40;;;;;;;8.50;6.60;;;;;;;10.88;96.95;98111.84;107406;1312;22371;-41
2023/04/15 05:41:05;;;;;;;8.50;7.50;;;;;;;10.87;97.25;98116.47;107384;1312;23150;-41
2023/04/15 05:43:30;;;;;;;9.50;7.00;;;;;;;10.88;96.19;98125.02;107401;1312;22253;-39
2023/04/15 05:45:56;;;;;;;9.50;7.30;;;;;;;10.88;97.17;98125.02;107442;1312;22299;-41
2023/04/15 05:48:21;;;;;;;8.40;6.40;;;;;;;10.91;96.63;98130.54;107426;1311;23197;-42
2023/04/15 05:50:46;;;;;;;7.80;6.00;;;;;;;10.95;95.76;98131.70;107430;1312;22398;-46
2023/04/15 05:53:12;;;;;;;6.40;5.70;;;;;;;10.95;96.81;98133.41;107416;1312;22230;-40
2023/04/15 05:55:37;;;;;;;9.50;5.70;;;;;;;10.99;96.39;98135.77;107427;1292;22399;-41
2023/04/15 05:58:02;;;;;;;5.80;5.30;;;;;;;11.01;95.90;98134.77;107419;1312;22303;-40
2023/04/15 06:00:28;;;;;;;6.30;5.40;;;;;;;11.00;96.36;98137.45;107424;1310;22867;-41
2023/04/15 06:02:55;;;;;;;8.60;4.80;;;;;;;11.01;96.58;98137.35;107414;1312;22396;-41
2023/04/15 06:05:20;;;;;;;7.60;4.70;;;;;;;11.03;96.54;98140.89;107431;1312;22253;-42
2023/04/15 06:07:45;;;;;;;6.90;4.80;;;;;;;11.04;95.77;98138.55;107414;1312;22412;-43
2023/04/15 06:10:11;;;;;;;5.70;4.80;;;;;;;11.03;96.52;98137.93;107393;1312;22312;-42
2023/04/15 06:12:36;;;;;;;6.00;4.80;;;;;;;11.09;96.89;98133.45;107392;1312;22296;-41
2023/04/15 06:15:02;;;;;;;5.60;5.10;;;;;;;11.17;96.18;98134.81;107401;1311;22250;-41
2023/04/15 06:17:28;;;;;;;9.70;5.30;;;;;;;11.21;96.32;98135.11;107421;1312;22257;-40
2023/04/15 06:19:56;;;;;;;7.10;4.70;;;;;;;11.23;96.45;98143.10;107401;1312;22229;-43
2023/04/15 06:22:22;;;;;;;6.30;5.00;;;;;;;11.21;95.69;98149.36;107434;1312;22248;-41
2023/04/15 06:24:49;;;;;;;5.90;5.10;;;;;;;11.21;95.93;98154.33;107419;1312;22430;-41
2023/04/15 06:27:15;;;;;;;5.90;4.80;;;;;;;11.22;94.96;98157.21;107421;1312;22259;-40
2023/04/15 06:29:40;;;;;;;8.20;5.60;;;;;;;11.16;95.52;98156.96;107393;1312;22225;-40
2023/04/15 06:32:06;;;;;;;7.70;5.50;;;;;;;11.11;96.42;98158.34;107370;1309;22482;-41
2023/04/15 06:34:31;;;;;;;8.20;5.50;;;;;;;11.08;96.25;98156.30;107419;1312;22245;-42
2023/04/15 06:36:56;;;;;;;5.60;4.70;;;;;;;11.09;95.86;98161.15;107429;1312;24854;-41
2023/04/15 06:39:21;;;;;;;6.40;5.10;;;;;;;11.08;96.00;98158.23;107416;1312;22205;-40
2023/04/15 06:41:47;;;;;;;5.70;5.10;;;;;;;11.10;95.96;98165.48;107415;1311;23298;-40
2023/04/15 06:44:12;;;;;;;8.60;5.00;;;;;;;11.08;96.51;98166.16;107433;1312;22205;-41
2023/04/15 06:46:38;;;;;;;5.30;4.80;;;;;;;11.11;95.57;98169.96;107405;1311;22299;-40
2023/04/15 06:49:04;;;;;;;6.60;5.10;;;;;;;11.10;95.44;98171.20;107422;1312;22426;-41
2023/04/15 06:51:30;;;;;;;6.90;5.30;;;;;;;11.08;96.61;98170.86;107432;1312;23101;-40
2023/04/15 06:53:56;;;;;;;6.90;5.60;;;;;;;11.11;95.71;98166.80;107425;1312;22393;-40
2023/04/15 06:56:22;;;;;;;8.30;5.60;;;;;;;11.12;96.08;98166.55;107413;1312;22404;-41
2023/04/15 06:58:47;;;;;;;7.30;5.40;;;;;;;11.10;95.78;98176.13;107419;1312;23273;-40
2023/04/15 07:01:13;;;;;;;6.70;5.50;;;;;;;11.08;96.21;98182.98;107413;1311;22413;-41
2023/04/15 07:03:38;;;;;;;7.30;5.70;;;;;;;11.06;97.14;98185.74;107434;1311;22432;-40
2023/04/15 07:06:05;;;;;;;7.80;5.50;;;;;;;11.07;96.19;98183.08;107447;1311;23057;-41
2023/04/15 07:08:31;;;;;;;5.80;5.20;;;;;;;11.05;96.12;98186.70;107436;1311;22255;-43
2023/04/15 07:10:56;;;;;;;6.70;5.00;;;;;;;11.03;96.95;98188.95;107427;1311;22395;-42
2023/04/15 07:13:22;;;;;;;6.80;5.30;;;;;;;11.05;96.52;98192.64;107434;1311;22213;-38
2023/04/15 07:15:49;;;;;;;6.00;5.30;;;;;;;11.04;95.88;98197.10;107418;1311;23320;-40
2023/04/15 07:18:14;;;;;;;;;;;;;;;11.02;96.30;98196.55;107462;1311;23162;-42
2023/04/15 07:20:40;;;;;;;6.00;5.10;;;;;;;10.99;97.09;98196.41;107419;1311;22241;-42
2023/04/15 07:23:05;;;;;;;5.00;4.50;;;;;;;11.00;96.39;98193.36;107450;1311;22251;-42
2023/04/15 07:25:31;;;;;;;6.20;5.20;;;;;;;10.99;96.11;98194.65;107448;1311;22405;-41
2023/04/15 07:27:57;;;;;;;6.20;5.10;;;;;;;11.01;96.14;98199.82;107444;1311;22240;-40
2023/04/15 07:30:22;;;;;;;5.60;4.60;;;;;;;11.02;95.93;98197.29;107444;1311;22535;-41
2023/04/15 07:32:47;;;;;;;7.20;5.30;;;;;;;10.99;95.99;98191.71;107455;1290;22438;-40
2023/04/15 07:35:13;;;;;;;8.30;5.80;;;;;;;11.02;95.98;98193.76;107425;1311;22782;-41
2023/04/15 07:37:42;;;;;;;8.20;5.80;;;;;;;11.05;96.49;98194.04;107451;1311;22323;-41
2023/04/15 07:40:08;;;;;;;7.80;5.40;;;;;;;11.05;96.47;98198.31;107443;1311;22988;-42
2023/04/15 07:42:34;;;;;;;7.60;5.40;;;;;;;11.05;96.79;98203.50;107441;1311;23007;-40
2023/04/15 07:44:59;;;;;;;7.60;5.50;;;;;;;11.07;96.62;98201.79;107466;1311;22242;-41
2023/04/15 07:47:25;;;;;;;6.80;5.20;;;;;;;11.10;96.40;98201.23;107433;1311;22253;-40
2023/04/15 07:49:51;;;;;;;7.70;5.80;;;;;;;11.09;96.40;98200.61;107448;1311;22250;-41
2023/04/15 07:52:16;;;;;;;6.40;5.20;;;;;;;11.07;95.98;98201.98;107435;1311;22247;-41
2023/04/15 07:54:43;;;;;;;7.80;5.80;;;;;;;11.06;97.12;98202.90;107265;1311;23153;-41
2023/04/15 07:57:09;;;;;;;6.60;5.80;;;;;;;11.08;96.82;98202.27;107455;1311;22952;-41
2023/04/15 07:59:34;;;;;;;8.00;6.30;;;;;;;11.09;96.94;98203.23;107432;1311;22408;-41
2023/04/15 08:02:00;;;;;;;8.90;6.30;;;;;;;11.11;96.44;98206.77;107418;1303;22238;-40
2023/04/15 08:04:26;;;;;;;8.60;6.80;;;;;;;11.12;96.57;98210.00;107438;1311;22666;-42
2023/04/15 08:06:51;;;;;;;8.90;7.00;;;;;;;11.12;97.08;98211.22;107449;1311;22218;-40
2023/04/15 08:09:16;;;;;;;8.80;6.90;;;;;;;11.15;97.47;98215.58;107445;1311;22480;-40
2023/04/15 08:11:42;;;;;;;9.60;7.40;;;;;;;11.18;96.73;98214.13;107452;1311;22920;-41
2023/04/15 08:14:07;;;;;;;10.20;7.30;;;;;;;11.18;96.60;98217.29;107424;1311;22970;-41
2023/04/15 08:16:33;;;;;;;10.10;8.00;;;;;;;11.17;97.08;98210.91;107434;1311;22247;-40
2023/04/15 08:18:58;;;;;;;10.20;8.20;;;;;;;11.16;97.35;98207.11;107442;1311;22243;-40
2023/04/15 08:21:23;;;;;;;12.50;8.30;;;;;;;11.18;97.51;98210.48;107405;1311;22215;-41
2023/04/15 08:23:51;;;;;;;11.60;8.90;;;;;;;11.20;97.24;98209.95;107431;1311;22203;-41
2023/04/15 08:26:18;;;;;;;12.40;8.50;;;;;;;11.21;97.79;98212.35;107431;1311;23042;-41
2023/04/15 08:28:45;;;;;;;10.60;8.20;;;;;;;11.24;97.15;98216.00;107440;1311;22328;-41
2023/04/15 08:31:11;;;;;;;9.70;8.00;;;;;;;11.22;97.76;98218.42;107397;1311;23006;-41
2023/04/15 08:33:36;;;;;;;11.40;8.70;;;;;;;11.21;97.82;98219.16;107453;1311;23075;-40
2023/04/15 08:36:02;;;;;;;10.30;8.60;;;;;;;11.23;97.45;98220.96;107457;1311;22512;-40
2023/04/15 08:38:27;;;;;;;10.40;8.10;;;;;;;11.22;97.51;98222.27;107442;1311;22376;-40
2023/04/15 08:40:52;;;;;;;14.20;9.90;;;;;;;11.22;97.59;98219.27;107441;1311;22216;-43
2023/04/15 08:43:25;;;;;;;9.60;8.00;;;;;;;11.25;97.82;98218.01;107446;1311;22142;-42
2023/04/15 08:45:51;;;;;;;14.60;9.70;;;;;;;11.33;97.19;98219.34;107447;1311;22445;-41
2023/04/15 08:48:17;;;;;;;12.00;9.40;;;;;;;11.41;97.10;98216.80;107430;1311;22977;-42
2023/04/15 08:50:45;;;;;;;11.70;9.40;;;;;;;11.50;96.52;98216.45;107458;1311;22981;-42
2023/04/15 08:53:11;;;;;;;13.80;10.80;;;;;;;11.51;96.91;98215.65;107452;1311;22551;-41
2023/04/15 08:55:46;;;;;;;13.70;10.20;;;;;;;11.57;96.47;98218.42;107434;1311;22190;-40
2023/04/15 08:58:13;;;;;;;11.50;9.10;;;;;;;11.65;96.86;98220.25;107430;1311;22247;-40
2023/04/15 09:00:39;;;;;;;12.80;9.40;;;;;;;11.73;97.10;98216.66;107423;1311;23114;-51
2023/04/15 09:03:06;;;;;;;13.00;9.10;;;;;;;11.80;96.43;98213.80;107445;1311;22215;-41
2023/04/15 09:05:32;;;;;;;12.60;9.60;;;;;;;11.85;96.12;98214.99;107439;1311;22267;-42
2023/04/15 09:07:58;;;;;;;13.50;9.00;;;;;;;11.90;95.97;98218.34;107439;1311;23008;-41
2023/04/15 09:10:23;;;;;;;15.20;8.90;;;;;;;11.92;95.51;98219.05;107448;1311;22209;-50
2023/04/15 09:12:49;;;;;;;11.20;9.50;;;;;;;11.94;94.92;98217.19;107446;1311;22260;-42
2023/04/15 09:15:15;;;;;;;14.30;9.80;;;;;;;11.94;94.45;98212.77;107435;1311;22988;-40
2023/04/15 09:17:44;;;;;;;12.70;8.40;;;;;;;11.98;95.08;98214.73;107403;1311;22255;-41
2023/04/15 09:20:14;;;;;;;14.80;11.50;;;;;;;11.99;95.11;98212.70;107448;1311;23010;-40
2023/04/15 09:22:42;;;;;;;13.90;9.30;;;;;;;12.00;94.51;98210.02;107427;1311;22229;-40
2023/04/15 09:25:13;;;;;;;16.10;10.30;;;;;;;12.02;95.02;98211.39;107456;1311;22298;-41
2023/04/15 09:27:54;;;;;;;13.10;9.20;;;;;;;12.06;94.97;98215.71;107441;1311;22271;-41
2023/04/15 09:30:20;;;;;;;11.50;9.30;;;;;;;12.13;94.79;98216.21;107249;1311;22756;-42
2023/04/15 09:32:52;;;;;;;16.30;10.80;;;;;;;12.19;94.96;98214.31;107445;1311;23104;-42
2023/04/15 09:35:22;;;;;;;11.40;9.40;;;;;;;12.24;94.18;98210.91;107441;1311;23038;-41
2023/04/15 09:37:48;;;;;;;20.00;12.90;;;;;;;12.29;92.84;98214.45;107129;1311;22261;-42
2023/04/15 09:40:14;;;;;;;9.20;7.90;;;;;;;12.32;91.74;98215.27;107440;1311;22808;-41
2023/04/15 09:42:56;;;;;;;11.00;7.90;;;;;;;12.39;92.24;98212.95;107441;1311;22280;-41
2023/04/15 09:45:22;;;;;;;13.10;7.00;;;;;;;12.48;92.49;98214.30;107435;1311;23229;-41
2023/04/15 09:47:50;;;;;;;11.10;7.10;;;;;;;12.57;93.33;98214.83;107452;1311;22241;-41
2023/04/15 09:50:15;;;;;;;9.30;6.70;;;;;;;12.65;92.99;98218.34;107412;1303;23317;-42
2023/04/15 09:52:44;;;;;;;10.70;7.70;;;;;;;12.70;92.64;98221.48;107428;1311;22247;-43
2023/04/15 09:55:11;;;;;;;17.50;8.70;;;;;;;12.76;91.92;98226.66;107454;1303;23512;-40
2023/04/15 09:57:38;;;;;;;9.90;7.70;;;;;;;12.79;92.19;98229.23;107426;1311;22266;-41
2023/04/15 10:00:08;;;;;;;8.80;7.80;;;;;;;12.83;91.82;98232.23;107387;1311;22566;-42
2023/04/15 10:02:35;;;;;;;10.00;7.30;;;;;;;12.87;91.15;98230.70;107405;1311;22222;-42
2023/04/15 10:05:01;;;;;;;11.90;8.40;;;;;;;12.88;90.93;98232.68;107449;1311;22239;-43
2023/04/15 10:07:27;;;;;;;9.20;6.40;;;;;;;12.82;90.04;98233.70;107389;1311;22994;-41
2023/04/15 10:09:53;;;;;;;7.80;5.90;;;;;;;12.84;90.07;98232.65;107402;1311;22217;-42
2023/04/15 10:12:19;;;;;;;8.00;6.60;;;;;;;12.87;89.45;98239.98;107398;1311;22252;-40
2023/04/15 10:14:51;;;;;;;15.70;8.20;;;;;;;12.90;89.15;98242.23;107449;1311;22264;-41
2023/04/15 10:17:17;;;;;;;6.80;6.00;;;;;;;12.90;88.61;98244.15;107434;1311;22240;-42
2023/04/15 10:19:43;;;;;;;10.40;6.80;;;;;;;12.83;87.33;98245.22;107406;1311;22241;-42
2023/04/15 10:22:09;;;;;;;8.80;6.80;;;;;;;12.80;87.38;98245.14;107370;1311;22429;-43
2023/04/15 10:24:35;;;;;;;12.20;8.00;;;;;;;12.79;88.67;98243.27;107416;1311;22579;-41
2023/04/15 10:27:03;;;;;;;9.40;7.20;;;;;;;12.82;89.31;98242.52;107423;1311;22410;-41
2023/04/15 10:29:28;;;;;;;12.20;8.80;;;;;;;12.81;89.21;98243.32;107458;1311;22422;-43
2023/04/15 10:31:58;;;;;;;13.40;8.80;;;;;;;12.85;89.59;98244.00;107425;1311;22417;-41
2023/04/15 10:34:24;;;;;;;10.10;6.90;;;;;;;12.89;89.99;98243.17;107421;1311;22226;-42
2023/04/15 10:36:50;;;;;;;11.90;8.40;;;;;;;12.93;89.36;98246.75;107391;1311;22856;-43
2023/04/15 10:39:35;;;;;;;10.40;9.10;;;;;;;13.00;90.11;98246.68;107428;1311;22250;-42
2023/04/15 10:42:09;;;;;;;8.10;6.40;;;;;;;13.09;89.00;98251.28;107447;1311;22249;-43
2023/04/15 10:44:40;;;;;;;7.40;5.50;;;;;;;13.10;85.96;98256.12;107417;1311;22429;-42
2023/04/15 10:47:20;;;;;;;10.20;5.40;;;;;;;13.13;87.03;98254.95;107453;1311;22232;-40
2023/04/15 10:49:57;;;;;;;8.30;5.90;;;;;;;13.18;87.43;98254.21;107432;1311;23232;-41
2023/04/15 10:52:26;;;;;;;8.70;5.80;;;;;;;13.14;87.14;98255.92;107433;1311;22918;-44
2023/04/15 10:55:03;;;;;;;9.40;5.90;;;;;;;13.11;86.92;98255.45;107418;1311;22422;-40
2023/04/15 10:57:34;;;;;;;8.80;6.30;;;;;;;13.14;86.80;98255.24;107447;1311;22390;-43
2023/04/15 11:00:10;;;;;;;10.00;6.40;;;;;;;13.14;87.01;98256.69;107385;1311;22251;-40
2023/04/15 11:02:56;;;;;;;9.00;7.10;;;;;;;13.16;86.94;98256.67;107428;1311;22264;-40
2023/04/15 11:05:40;;;;;;;11.40;8.20;;;;;;;13.18;86.95;98259.80;107425;1311;22275;-42
2023/04/15 11:08:05;;;;;;;13.40;7.50;;;;;;;13.13;86.51;98258.96;107402;1311;22260;-42
2023/04/15 11:10:31;;;;;;;8.40;6.20;;;;;;;13.17;86.87;98260.27;107461;1311;22982;-40
2023/04/15 11:13:04;;;;;;;7.10;6.20;;;;;;;13.11;85.97;98262.50;107428;1311;22195;-40
2023/04/15 11:15:37;;;;;;;10.20;6.70;;;;;;;13.09;85.51;98263.36;107431;1311;22890;-42
2023/04/15 11:18:23;;;;;;;17.20;11.00;;;;;;;13.04;85.45;98265.58;107420;1311;23009;-41
2023/04/15 11:20:58;;;;;;;10.50;7.60;;;;;;;12.99;85.41;98266.32;107453;1311;22344;-42